Time;durP1;ratioP1;P1;durP2;ratioP2;P2;SDS_P1;SDS_P2;PMS_P1;PMS_P2;Temp;Humidity;BMP_temperature;BMP_pressure;BME280_temperature;BME280_humidity;BME280_pressure;Samples;Min_cycle;Max_cycle;Signal;HPM_P1;HPM_P2
2023/08/23 00:02:19;;;;;;;22.60;3.33;;;;;;;;;;4987533;28;20232;-82
2023/08/23 00:04:45;;;;;;;8.60;3.53;;;;;;;;;;4978446;28;20233;-82
2023/08/23 00:07:12;;;;;;;6.55;2.42;;;;;;;;;;4981471;28;20232;-82
2023/08/23 00:09:38;;;;;;;10.65;3.67;;;;;;;;;;4985666;28;20239;-82
2023/08/23 00:12:05;;;;;;;24.00;5.05;;;;;;;;;;4979655;28;20246;-82
2023/08/23 00:14:32;;;;;;;6.38;2.20;;;;;;;;;;4982913;28;20624;-82
2023/08/23 00:16:58;;;;;;;23.13;7.30;;;;;;;;;;4978146;28;20228;-82
2023/08/23 00:19:25;;;;;;;10.38;3.67;;;;;;;;;;4980718;28;20315;-82
2023/08/23 00:21:51;;;;;;;31.05;7.05;;;;;;;;;;4978183;28;20656;-82
2023/08/23 00:24:18;;;;;;;6.90;2.38;;;;;;;;;;4986570;28;20311;-83
2023/08/23 00:26:45;;;;;;;6.85;2.67;;;;;;;;;;4983572;28;20234;-82
2023/08/23 00:29:12;;;;;;;7.25;2.92;;;;;;;;;;4984737;28;20243;-82
2023/08/23 00:31:38;;;;;;;10.38;3.72;;;;;;;;;;4985840;28;20244;-81
2023/08/23 00:34:05;;;;;;;23.88;5.03;;;;;;;;;;5010220;28;20248;-82
2023/08/23 00:36:32;;;;;;;9.75;3.35;;;;;;;;;;4985315;28;20235;-82
2023/08/23 00:38:59;;;;;;;52.03;9.48;;;;;;;;;;4980412;28;20291;-82
2023/08/23 00:41:25;;;;;;;7.60;2.95;;;;;;;;;;4985989;28;20591;-82
2023/08/23 00:43:52;;;;;;;39.92;8.93;;;;;;;;;;4982647;28;20231;-82
2023/08/23 00:46:19;;;;;;;8.68;3.10;;;;;;;;;;4990960;28;20241;-82
2023/08/23 00:48:47;;;;;;;10.20;3.42;;;;;;;;;;4985086;28;20281;-82
2023/08/23 00:51:14;;;;;;;9.55;3.30;;;;;;;;;;4986797;28;20236;-82
2023/08/23 00:53:40;;;;;;;8.82;3.42;;;;;;;;;;4989486;28;20240;-82
2023/08/23 00:56:07;;;;;;;24.83;4.93;;;;;;;;;;4988686;28;20232;-82
2023/08/23 00:58:34;;;;;;;10.18;3.42;;;;;;;;;;4986288;28;20220;-82
2023/08/23 01:01:01;;;;;;;17.63;5.88;;;;;;;;;;4985666;28;20258;-81
2023/08/23 01:03:28;;;;;;;9.82;3.25;;;;;;;;;;4990753;28;20234;-82
2023/08/23 01:06:03;;;;;;;13.25;4.45;;;;;;;;;;4987648;28;20231;-81
2023/08/23 01:08:47;;;;;;;8.43;2.70;;;;;;;;;;4992721;28;20236;-82
2023/08/23 01:11:32;;;;;;;11.50;3.63;;;;;;;;;;4994099;28;20236;-81
2023/08/23 01:14:03;;;;;;;16.58;5.05;;;;;;;;;;4985544;28;20234;-82
2023/08/23 01:16:31;;;;;;;9.57;2.88;;;;;;;;;;4990525;28;20229;-82
2023/08/23 01:18:59;;;;;;;23.33;7.35;;;;;;;;;;4991093;28;20235;-82
2023/08/23 01:21:31;;;;;;;14.90;4.55;;;;;;;;;;4986828;28;20244;-82
2023/08/23 01:23:57;;;;;;;18.48;6.28;;;;;;;;;;4991909;28;20291;-81
2023/08/23 01:26:24;;;;;;;10.00;3.40;;;;;;;;;;4989557;28;20232;-82
2023/08/23 01:28:51;;;;;;;17.58;5.78;;;;;;;;;;4986347;28;20281;-82
2023/08/23 01:31:20;;;;;;;8.43;2.47;;;;;;;;;;4984232;28;20242;-82
2023/08/23 01:33:51;;;;;;;15.35;5.00;;;;;;;;;;4981422;28;20228;-81
2023/08/23 01:36:21;;;;;;;7.70;2.60;;;;;;;;;;4981228;28;20239;-81
2023/08/23 01:38:48;;;;;;;8.93;2.80;;;;;;;;;;4986403;28;20223;-80
2023/08/23 01:41:15;;;;;;;10.13;3.38;;;;;;;;;;4990063;28;20240;-81
2023/08/23 01:43:44;;;;;;;11.93;3.80;;;;;;;;;;4987071;28;20238;-80
2023/08/23 01:46:11;;;;;;;11.10;3.72;;;;;;;;;;4983730;28;20233;-81
2023/08/23 01:48:37;;;;;;;14.57;4.60;;;;;;;;;;4987509;28;20228;-81
2023/08/23 01:51:04;;;;;;;11.73;4.00;;;;;;;;;;4983213;28;20241;-79
2023/08/23 01:53:30;;;;;;;11.05;4.32;;;;;;;;;;4983671;28;20248;-81
2023/08/23 01:55:58;;;;;;;22.63;7.50;;;;;;;;;;4984996;28;20240;-81
2023/08/23 01:58:25;;;;;;;13.07;4.47;;;;;;;;;;4981230;28;20228;-80
2023/08/23 02:00:52;;;;;;;18.30;6.40;;;;;;;;;;4966870;28;20750;-80
2023/08/23 02:03:19;;;;;;;10.02;3.67;;;;;;;;;;4980025;28;20232;-80
2023/08/23 02:05:46;;;;;;;10.13;3.65;;;;;;;;;;4981291;28;20215;-81
2023/08/23 02:08:14;;;;;;;11.00;3.83;;;;;;;;;;4983087;28;20232;-80
2023/08/23 02:10:41;;;;;;;9.18;3.50;;;;;;;;;;4981343;28;20240;-82
2023/08/23 02:13:08;;;;;;;13.27;4.53;;;;;;;;;;4977697;28;20583;-80
2023/08/23 02:15:34;;;;;;;9.73;3.55;;;;;;;;;;4983250;28;20228;-81
2023/08/23 02:18:01;;;;;;;19.27;6.75;;;;;;;;;;4976113;28;20239;-79
2023/08/23 02:20:28;;;;;;;6.95;2.53;;;;;;;;;;4982306;28;20232;-81
2023/08/23 02:22:54;;;;;;;17.90;6.13;;;;;;;;;;4974013;28;20235;-81
2023/08/23 02:25:21;;;;;;;6.93;2.40;;;;;;;;;;4979981;28;20235;-81
2023/08/23 02:27:47;;;;;;;11.65;3.65;;;;;;;;;;4977459;28;20235;-82
2023/08/23 02:30:15;;;;;;;9.77;3.30;;;;;;;;;;4974638;28;20239;-80
2023/08/23 02:32:41;;;;;;;8.18;2.75;;;;;;;;;;4982635;28;20225;-79
2023/08/23 02:35:08;;;;;;;8.15;3.47;;;;;;;;;;4967411;28;20352;-81
2023/08/23 02:37:34;;;;;;;11.27;3.63;;;;;;;;;;4961583;28;20706;-81
2023/08/23 02:40:01;;;;;;;19.88;6.07;;;;;;;;;;4971503;28;20584;-81
2023/08/23 02:42:28;;;;;;;8.48;2.88;;;;;;;;;;4979335;28;20240;-81
2023/08/23 02:44:54;;;;;;;21.25;5.90;;;;;;;;;;4972895;28;20266;-80
2023/08/23 02:47:21;;;;;;;9.23;2.63;;;;;;;;;;4982012;28;20231;-80
2023/08/23 02:49:47;;;;;;;35.15;6.20;;;;;;;;;;4978491;28;20243;-81
2023/08/23 02:52:14;;;;;;;16.73;4.53;;;;;;;;;;4977327;28;20248;-78
2023/08/23 02:54:40;;;;;;;12.60;3.47;;;;;;;;;;4984617;28;20712;-79
2023/08/23 02:57:07;;;;;;;16.83;5.28;;;;;;;;;;4982260;28;20232;-80
2023/08/23 02:59:34;;;;;;;22.52;5.32;;;;;;;;;;4984823;28;20247;-77
2023/08/23 03:02:00;;;;;;;25.60;7.60;;;;;;;;;;4978868;28;20233;-78
2023/08/23 03:04:27;;;;;;;12.48;3.72;;;;;;;;;;4981893;28;20311;-79
2023/08/23 03:06:53;;;;;;;26.60;6.82;;;;;;;;;;4983556;28;20240;-78
2023/08/23 03:09:20;;;;;;;13.95;3.75;;;;;;;;;;4989600;28;20328;-77
2023/08/23 03:11:47;;;;;;;18.92;5.03;;;;;;;;;;4991825;28;20239;-79
2023/08/23 03:14:13;;;;;;;15.32;4.10;;;;;;;;;;4982948;28;20235;-77
2023/08/23 03:16:40;;;;;;;17.40;4.22;;;;;;;;;;4990225;28;20291;-78
2023/08/23 03:19:08;;;;;;;15.10;4.47;;;;;;;;;;4988095;28;20232;-78
2023/08/23 03:21:34;;;;;;;14.90;4.80;;;;;;;;;;4983012;28;20246;-77
2023/08/23 03:24:01;;;;;;;21.10;5.47;;;;;;;;;;4984402;28;20239;-79
2023/08/23 03:26:27;;;;;;;15.90;3.85;;;;;;;;;;4990508;28;20239;-80
2023/08/23 03:28:54;;;;;;;33.38;8.30;;;;;;;;;;4983461;28;20267;-78
2023/08/23 03:31:20;;;;;;;14.80;4.32;;;;;;;;;;4988601;28;20237;-78
2023/08/23 03:33:47;;;;;;;17.92;4.60;;;;;;;;;;4990647;28;20237;-79
2023/08/23 03:36:14;;;;;;;20.95;5.18;;;;;;;;;;4994821;28;20303;-78
2023/08/23 03:38:40;;;;;;;16.27;4.88;;;;;;;;;;4997450;28;20232;-79
2023/08/23 03:41:13;;;;;;;26.23;6.63;;;;;;;;;;4985233;28;20240;-77
2023/08/23 03:43:40;;;;;;;12.23;3.25;;;;;;;;;;4993436;28;20231;-79
2023/08/23 03:46:06;;;;;;;20.55;6.15;;;;;;;;;;4989835;28;20356;-79
2023/08/23 03:48:33;;;;;;;12.18;3.95;;;;;;;;;;4997659;28;20261;-78
2023/08/23 03:50:59;;;;;;;19.95;5.78;;;;;;;;;;4981412;28;20241;-78
2023/08/23 03:53:26;;;;;;;15.85;4.63;;;;;;;;;;4985725;28;20240;-79
2023/08/23 03:55:56;;;;;;;22.40;5.78;;;;;;;;;;4982743;28;20235;-78
2023/08/23 03:58:22;;;;;;;16.33;4.90;;;;;;;;;;4989711;28;20253;-80
2023/08/23 04:00:52;;;;;;;17.63;5.50;;;;;;;;;;4979736;28;20236;-78
2023/08/23 04:03:19;;;;;;;13.00;3.60;;;;;;;;;;4990966;28;20239;-79
2023/08/23 04:05:46;;;;;;;12.35;3.17;;;;;;;;;;4992597;28;20240;-79
2023/08/23 04:08:13;;;;;;;10.77;3.13;;;;;;;;;;4990030;28;20290;-79
2023/08/23 04:10:45;;;;;;;10.07;3.38;;;;;;;;;;4994940;28;20251;-79
2023/08/23 04:13:11;;;;;;;13.25;3.58;;;;;;;;;;4982037;28;20269;-79
2023/08/23 04:15:40;;;;;;;15.40;3.47;;;;;;;;;;4982945;28;20236;-79
2023/08/23 04:18:07;;;;;;;45.17;8.93;;;;;;;;;;4967601;28;20240;-79
2023/08/23 04:20:33;;;;;;;13.43;4.40;;;;;;;;;;4966847;28;20236;-79
2023/08/23 04:23:00;;;;;;;18.63;5.55;;;;;;;;;;4967252;28;20236;-78
2023/08/23 04:25:26;;;;;;;12.73;3.83;;;;;;;;;;4982177;28;20306;-78
2023/08/23 04:27:53;;;;;;;20.05;5.93;;;;;;;;;;4983218;28;20248;-78
2023/08/23 04:30:19;;;;;;;14.27;3.67;;;;;;;;;;4992540;28;20620;-77
2023/08/23 04:32:46;;;;;;;10.65;3.28;;;;;;;;;;4984707;28;20228;-78
2023/08/23 04:35:13;;;;;;;11.38;3.20;;;;;;;;;;4980580;28;20295;-79
2023/08/23 04:37:39;;;;;;;10.82;2.95;;;;;;;;;;4990497;28;20268;-78
2023/08/23 04:40:07;;;;;;;15.38;4.35;;;;;;;;;;4981002;28;20238;-79
2023/08/23 04:42:34;;;;;;;12.90;3.65;;;;;;;;;;4990861;28;20251;-80
2023/08/23 04:45:01;;;;;;;25.20;6.43;;;;;;;;;;4980946;28;20231;-79
2023/08/23 04:47:28;;;;;;;19.20;5.00;;;;;;;;;;4983489;28;20228;-79
2023/08/23 04:49:54;;;;;;;27.27;7.53;;;;;;;;;;4975463;28;20248;-79
2023/08/23 04:52:21;;;;;;;10.02;2.75;;;;;;;;;;4964577;28;20232;-79
2023/08/23 04:54:48;;;;;;;13.82;3.80;;;;;;;;;;4974860;28;20235;-83
2023/08/23 04:57:14;;;;;;;14.10;4.88;;;;;;;;;;4974230;28;20247;-78
2023/08/23 04:59:41;;;;;;;11.65;3.50;;;;;;;;;;4988501;28;20230;-80
2023/08/23 05:02:07;;;;;;;18.83;5.13;;;;;;;;;;5008158;28;20236;-77
2023/08/23 05:04:34;;;;;;;13.93;4.28;;;;;;;;;;4981353;28;20233;-78
2023/08/23 05:07:00;;;;;;;36.90;7.97;;;;;;;;;;4977551;28;20239;-77
2023/08/23 05:09:28;;;;;;;11.55;3.75;;;;;;;;;;4981585;28;20383;-78
2023/08/23 05:11:55;;;;;;;39.08;8.88;;;;;;;;;;4972485;28;20247;-79
2023/08/23 05:14:22;;;;;;;10.18;2.97;;;;;;;;;;4985010;28;20240;-78
2023/08/23 05:16:48;;;;;;;28.73;6.32;;;;;;;;;;4974231;28;20232;-76
2023/08/23 05:19:15;;;;;;;16.95;5.28;;;;;;;;;;4984431;28;20232;-77
2023/08/23 05:21:41;;;;;;;11.50;3.88;;;;;;;;;;4989998;28;20329;-79
2023/08/23 05:24:08;;;;;;;13.05;4.35;;;;;;;;;;4984551;28;20446;-79
2023/08/23 05:26:34;;;;;;;13.73;5.15;;;;;;;;;;5013079;28;20361;-78
2023/08/23 05:29:01;;;;;;;12.73;4.20;;;;;;;;;;4982625;28;20231;-80
2023/08/23 05:31:28;;;;;;;15.82;5.25;;;;;;;;;;4988155;28;20606;-79
2023/08/23 05:33:54;;;;;;;18.13;5.95;;;;;;;;;;4980963;28;20238;-80
2023/08/23 05:36:21;;;;;;;9.68;3.53;;;;;;;;;;4981821;28;20235;-78
2023/08/23 05:38:49;;;;;;;8.45;3.17;;;;;;;;;;4982588;28;20699;-80
2023/08/23 05:41:16;;;;;;;11.15;3.70;;;;;;;;;;4982242;28;20243;-81
2023/08/23 05:43:42;;;;;;;10.98;3.65;;;;;;;;;;4980278;28;20296;-81
2023/08/23 05:46:09;;;;;;;7.85;2.95;;;;;;;;;;4976226;28;20294;-81
2023/08/23 05:48:36;;;;;;;9.43;3.42;;;;;;;;;;4988015;28;20273;-79
2023/08/23 05:51:02;;;;;;;18.17;6.05;;;;;;;;;;4980540;28;20300;-79
2023/08/23 05:53:29;;;;;;;14.93;4.65;;;;;;;;;;4992379;28;20291;-80
2023/08/23 05:55:56;;;;;;;18.65;6.25;;;;;;;;;;4996672;28;20229;-77
2023/08/23 05:58:22;;;;;;;13.18;3.72;;;;;;;;;;4997244;28;20286;-79
2023/08/23 06:00:49;;;;;;;16.30;4.70;;;;;;;;;;4980122;28;20275;-79
2023/08/23 06:03:16;;;;;;;23.85;6.57;;;;;;;;;;4984489;28;20303;-78
2023/08/23 06:05:43;;;;;;;12.45;3.72;;;;;;;;;;4980383;28;20294;-81
2023/08/23 06:08:10;;;;;;;11.43;3.25;;;;;;;;;;4972685;28;20236;-79
2023/08/23 06:10:37;;;;;;;18.05;5.38;;;;;;;;;;4992216;28;20232;-79
2023/08/23 06:13:03;;;;;;;21.35;6.18;;;;;;;;;;4980009;28;20220;-79
2023/08/23 06:15:30;;;;;;;10.73;3.30;;;;;;;;;;4979918;28;20300;-79
2023/08/23 06:17:57;;;;;;;17.13;5.05;;;;;;;;;;4979477;28;20238;-79
2023/08/23 06:20:23;;;;;;;8.85;2.90;;;;;;;;;;4982986;28;20258;-78
2023/08/23 06:22:50;;;;;;;11.82;3.83;;;;;;;;;;4988896;28;20224;-79
2023/08/23 06:25:17;;;;;;;9.38;2.92;;;;;;;;;;4993594;28;20290;-78
2023/08/23 06:27:44;;;;;;;11.38;3.60;;;;;;;;;;4989065;28;20225;-79
2023/08/23 06:30:14;;;;;;;13.32;4.00;;;;;;;;;;4986685;28;20758;-79
2023/08/23 06:32:42;;;;;;;11.18;3.03;;;;;;;;;;4985714;28;20236;-79
2023/08/23 06:35:08;;;;;;;13.45;4.22;;;;;;;;;;4982447;28;20237;-79
2023/08/23 06:37:35;;;;;;;9.45;2.85;;;;;;;;;;4987101;28;20230;-79
2023/08/23 06:40:02;;;;;;;20.20;6.43;;;;;;;;;;4983678;28;20228;-79
2023/08/23 06:42:29;;;;;;;10.88;3.22;;;;;;;;;;4985493;28;20240;-78
2023/08/23 06:44:55;;;;;;;18.80;5.88;;;;;;;;;;4973148;28;20232;-78
2023/08/23 06:47:23;;;;;;;10.50;3.10;;;;;;;;;;4981747;28;20307;-78
2023/08/23 06:49:50;;;;;;;15.32;5.22;;;;;;;;;;4976134;28;20320;-78
2023/08/23 06:52:16;;;;;;;13.57;4.22;;;;;;;;;;4980105;28;20242;-77
2023/08/23 06:54:43;;;;;;;12.48;3.63;;;;;;;;;;4987844;28;20228;-79
2023/08/23 06:57:09;;;;;;;11.52;3.80;;;;;;;;;;4969902;28;20246;-79
2023/08/23 06:59:36;;;;;;;11.93;3.50;;;;;;;;;;4976979;28;20221;-78
2023/08/23 07:02:03;;;;;;;18.75;5.40;;;;;;;;;;4970072;28;20228;-78
2023/08/23 07:04:29;;;;;;;12.00;3.83;;;;;;;;;;4986136;28;20321;-79
2023/08/23 07:06:57;;;;;;;12.88;4.00;;;;;;;;;;4977765;28;20231;-78
2023/08/23 07:09:24;;;;;;;11.40;3.15;;;;;;;;;;4974509;28;20237;-78
2023/08/23 07:11:50;;;;;;;17.48;5.10;;;;;;;;;;4977972;28;20240;-77
2023/08/23 07:14:17;;;;;;;9.38;3.00;;;;;;;;;;4976953;28;20252;-77
2023/08/23 07:16:44;;;;;;;12.70;4.10;;;;;;;;;;4976072;28;20223;-77
2023/08/23 07:19:12;;;;;;;9.93;2.78;;;;;;;;;;4966991;28;20239;-77
2023/08/23 07:21:38;;;;;;;12.38;3.67;;;;;;;;;;4982226;28;20278;-77
2023/08/23 07:24:05;;;;;;;23.80;5.97;;;;;;;;;;4960196;28;20385;-78
2023/08/23 07:26:33;;;;;;;13.52;3.45;;;;;;;;;;4975191;28;20220;-77
2023/08/23 07:29:00;;;;;;;29.17;7.78;;;;;;;;;;4980216;28;20307;-78
2023/08/23 07:31:27;;;;;;;12.45;4.45;;;;;;;;;;4981311;28;20235;-78
2023/08/23 07:33:53;;;;;;;24.85;6.35;;;;;;;;;;4982089;28;20582;-79
2023/08/23 07:36:20;;;;;;;11.27;3.08;;;;;;;;;;4982538;28;20359;-79
2023/08/23 07:38:46;;;;;;;15.57;4.15;;;;;;;;;;4978440;28;20220;-78
2023/08/23 07:41:13;;;;;;;14.00;3.72;;;;;;;;;;4977584;28;20227;-78
2023/08/23 07:43:40;;;;;;;15.07;4.07;;;;;;;;;;4973878;28;20238;-78
2023/08/23 07:46:07;;;;;;;13.90;4.13;;;;;;;;;;4976896;28;20262;-77
2023/08/23 07:48:34;;;;;;;15.20;4.35;;;;;;;;;;4986213;28;20255;-78
2023/08/23 07:51:01;;;;;;;18.10;4.90;;;;;;;;;;4956438;23;20324;-77
2023/08/23 07:53:28;;;;;;;14.82;3.72;;;;;;;;;;4937279;28;20523;-77
2023/08/23 07:55:55;;;;;;;23.67;6.55;;;;;;;;;;4937464;28;20229;-78
2023/08/23 07:58:22;;;;;;;14.38;4.05;;;;;;;;;;4940574;28;20264;-77
2023/08/23 08:00:49;;;;;;;13.02;3.83;;;;;;;;;;4943589;28;20246;-78
2023/08/23 08:03:16;;;;;;;14.13;3.80;;;;;;;;;;4942676;28;20236;-77
2023/08/23 08:05:42;;;;;;;15.63;4.53;;;;;;;;;;4937694;28;20237;-78
2023/08/23 08:08:10;;;;;;;13.75;4.00;;;;;;;;;;4935605;28;20236;-78
2023/08/23 08:10:36;;;;;;;12.52;3.42;;;;;;;;;;4930267;28;20312;-78
2023/08/23 08:13:03;;;;;;;28.27;7.63;;;;;;;;;;4950709;28;20237;-77
2023/08/23 08:15:31;;;;;;;13.48;3.85;;;;;;;;;;4945059;28;20229;-77
2023/08/23 08:17:58;;;;;;;18.83;5.47;;;;;;;;;;4933245;28;20229;-78
2023/08/23 08:20:25;;;;;;;14.80;4.13;;;;;;;;;;4941102;28;20233;-77
2023/08/23 08:22:52;;;;;;;10.73;4.05;;;;;;;;;;4942225;28;20233;-78
2023/08/23 08:25:18;;;;;;;9.70;3.15;;;;;;;;;;4942486;28;20312;-78
2023/08/23 08:27:49;;;;;;;21.90;5.60;;;;;;;;;;4948187;28;20228;-78
2023/08/23 08:30:17;;;;;;;9.07;3.42;;;;;;;;;;4939974;28;20295;-77
2023/08/23 08:32:44;;;;;;;8.63;3.35;;;;;;;;;;4945022;28;20225;-77
2023/08/23 08:35:11;;;;;;;9.73;3.70;;;;;;;;;;4938226;28;20237;-78
2023/08/23 08:37:37;;;;;;;6.40;2.60;;;;;;;;;;4945212;28;20225;-77
2023/08/23 08:40:04;;;;;;;44.15;8.88;;;;;;;;;;4941000;28;20311;-78
2023/08/23 08:42:31;;;;;;;10.73;3.88;;;;;;;;;;4938066;28;20237;-77
2023/08/23 08:44:58;;;;;;;14.75;5.60;;;;;;;;;;4934462;28;20230;-78
2023/08/23 08:47:25;;;;;;;10.32;3.90;;;;;;;;;;4941090;28;20236;-78
2023/08/23 08:49:51;;;;;;;10.95;3.85;;;;;;;;;;4947934;28;20236;-77
2023/08/23 08:52:20;;;;;;;8.52;3.13;;;;;;;;;;4938448;28;20241;-78
2023/08/23 08:54:51;;;;;;;8.73;3.05;;;;;;;;;;4932511;28;20233;-78
2023/08/23 08:57:18;;;;;;;10.20;3.53;;;;;;;;;;4937479;28;20320;-78
2023/08/23 08:59:45;;;;;;;9.80;3.28;;;;;;;;;;4937543;28;20248;-77
2023/08/23 09:02:14;;;;;;;12.95;3.97;;;;;;;;;;4934815;28;20249;-78
2023/08/23 09:04:43;;;;;;;13.02;3.55;;;;;;;;;;4939754;28;20240;-79
2023/08/23 09:07:09;;;;;;;12.60;3.47;;;;;;;;;;4935382;28;20244;-79
2023/08/23 09:09:36;;;;;;;14.50;4.10;;;;;;;;;;4866235;28;20230;-78
2023/08/23 09:12:03;;;;;;;14.80;4.88;;;;;;;;;;4835580;28;20235;-79
2023/08/23 09:14:29;;;;;;;16.40;4.13;;;;;;;;;;4900735;28;20252;-79
2023/08/23 09:16:56;;;;;;;13.98;4.43;;;;;;;;;;4870507;28;20233;-79
2023/08/23 09:19:23;;;;;;;13.00;4.05;;;;;;;;;;4886499;28;20244;-78
2023/08/23 09:21:49;;;;;;;14.07;4.60;;;;;;;;;;4940592;28;20236;-79
2023/08/23 09:24:17;;;;;;;8.90;2.72;;;;;;;;;;4918065;28;20235;-79
2023/08/23 09:26:46;;;;;;;11.55;3.63;;;;;;;;;;4927759;28;20229;-79
2023/08/23 09:29:12;;;;;;;8.55;2.75;;;;;;;;;;4939925;28;20345;-80
2023/08/23 09:31:39;;;;;;;11.63;3.72;;;;;;;;;;4898617;28;20237;-79
2023/08/23 09:34:14;;;;;;;15.43;5.03;;;;;;;;;;4816392;28;20305;-79
2023/08/23 09:36:40;;;;;;;8.73;2.92;;;;;;;;;;4877792;28;20232;-79
2023/08/23 09:39:10;;;;;;;14.05;4.60;;;;;;;;;;4895252;28;20249;-79
2023/08/23 09:41:41;;;;;;;10.23;3.40;;;;;;;;;;4902300;28;20234;-79
2023/08/23 09:44:26;;;;;;;8.38;2.83;;;;;;;;;;4923161;28;20281;-79
2023/08/23 09:46:54;;;;;;;13.85;4.30;;;;;;;;;;4913608;28;20240;-79
2023/08/23 09:49:21;;;;;;;7.63;2.60;;;;;;;;;;4929473;28;20236;-79
2023/08/23 09:51:49;;;;;;;12.80;4.80;;;;;;;;;;4906412;28;20248;-80
2023/08/23 09:54:25;;;;;;;8.93;2.92;;;;;;;;;;4842664;28;20292;-79
2023/08/23 09:57:13;;;;;;;8.00;3.03;;;;;;;;;;4886523;28;20252;-79
2023/08/23 09:59:39;;;;;;;9.48;3.25;;;;;;;;;;4947674;28;20710;-79
2023/08/23 10:02:08;;;;;;;15.95;5.07;;;;;;;;;;4932524;28;20252;-79
2023/08/23 10:04:36;;;;;;;6.60;2.38;;;;;;;;;;4963020;28;20225;-79
2023/08/23 10:07:03;;;;;;;17.05;5.55;;;;;;;;;;4959467;28;20236;-79
2023/08/23 10:09:30;;;;;;;9.30;3.03;;;;;;;;;;4951358;28;20240;-79
2023/08/23 10:11:57;;;;;;;17.15;5.40;;;;;;;;;;4957503;28;20307;-78
2023/08/23 10:14:24;;;;;;;10.55;3.28;;;;;;;;;;4961547;28;20237;-80
2023/08/23 10:16:51;;;;;;;13.32;4.40;;;;;;;;;;4948366;28;20231;-79
2023/08/23 10:19:18;;;;;;;10.20;3.25;;;;;;;;;;4963492;28;20225;-79
2023/08/23 10:21:44;;;;;;;9.43;2.97;;;;;;;;;;4961662;28;20240;-78
2023/08/23 10:24:11;;;;;;;11.88;3.47;;;;;;;;;;4944742;28;20267;-78
2023/08/23 10:26:45;;;;;;;9.00;2.88;;;;;;;;;;4953960;28;20239;-78
2023/08/23 10:29:12;;;;;;;6.28;2.05;;;;;;;;;;4926447;28;20238;-78
2023/08/23 10:31:50;;;;;;;8.25;2.58;;;;;;;;;;4964032;28;20240;-78
2023/08/23 10:34:22;;;;;;;8.88;3.10;;;;;;;;;;4958076;28;20232;-78
2023/08/23 10:36:48;;;;;;;8.65;2.75;;;;;;;;;;4958586;28;20284;-77
2023/08/23 10:39:15;;;;;;;6.03;2.22;;;;;;;;;;4887950;28;20240;-79
2023/08/23 10:41:42;;;;;;;11.00;4.15;;;;;;;;;;4951440;28;20248;-80
2023/08/23 10:44:15;;;;;;;15.75;5.63;;;;;;;;;;4893675;28;20289;-78
2023/08/23 10:46:45;;;;;;;8.43;3.10;;;;;;;;;;4955701;28;20237;-78
2023/08/23 10:49:12;;;;;;;7.53;2.60;;;;;;;;;;4929541;28;20228;-79
2023/08/23 10:51:42;;;;;;;8.35;2.83;;;;;;;;;;4924320;28;20256;-79
2023/08/23 10:54:12;;;;;;;10.02;2.92;;;;;;;;;;4935147;28;20229;-79
2023/08/23 10:56:38;;;;;;;8.18;2.95;;;;;;;;;;4930968;28;20233;-79
2023/08/23 10:59:08;;;;;;;13.25;3.75;;;;;;;;;;4935395;28;20281;-80
2023/08/23 11:01:37;;;;;;;13.50;3.58;;;;;;;;;;4943476;28;20241;-80
2023/08/23 11:04:08;;;;;;;57.58;10.40;;;;;;;;;;4946816;28;20233;-80
2023/08/23 11:06:35;;;;;;;10.50;4.15;;;;;;;;;;4946003;28;20252;-80
2023/08/23 11:09:02;;;;;;;56.78;13.18;;;;;;;;;;4929688;28;20225;-80
2023/08/23 11:11:30;;;;;;;5.93;2.35;;;;;;;;;;4955082;28;20774;-80
2023/08/23 11:13:57;;;;;;;45.80;9.52;;;;;;;;;;4911866;28;20229;-81
2023/08/23 11:16:25;;;;;;;6.75;2.47;;;;;;;;;;4897545;28;20237;-79
2023/08/23 11:18:58;;;;;;;56.20;12.93;;;;;;;;;;4886180;28;20221;-81
2023/08/23 11:21:26;;;;;;;6.70;2.20;;;;;;;;;;4927565;28;20236;-80
2023/08/23 11:23:53;;;;;;;46.25;10.05;;;;;;;;;;4945592;28;20228;-79
2023/08/23 11:26:20;;;;;;;5.50;2.50;;;;;;;;;;4945180;28;20236;-78
2023/08/23 11:28:51;;;;;;;23.25;6.10;;;;;;;;;;4934134;28;20228;-79
2023/08/23 11:31:21;;;;;;;6.53;2.28;;;;;;;;;;4944562;28;20228;-81
2023/08/23 11:33:48;;;;;;;18.20;3.42;;;;;;;;;;4938750;28;20283;-80
2023/08/23 11:36:18;;;;;;;5.85;2.03;;;;;;;;;;4957347;28;20225;-79
2023/08/23 11:38:48;;;;;;;10.82;3.60;;;;;;;;;;4956574;28;20228;-78
2023/08/23 11:41:28;;;;;;;9.70;2.95;;;;;;;;;;4915355;28;20229;-79
2023/08/23 11:43:55;;;;;;;36.60;8.23;;;;;;;;;;4950179;28;20274;-81
2023/08/23 11:46:22;;;;;;;5.65;2.00;;;;;;;;;;4942112;28;20237;-79
2023/08/23 11:48:50;;;;;;;34.08;7.00;;;;;;;;;;4937144;28;20243;-78
2023/08/23 11:51:17;;;;;;;4.10;1.65;;;;;;;;;;4947324;28;20290;-78
2023/08/23 11:53:48;;;;;;;6.65;2.78;;;;;;;;;;4962054;28;20236;-78
2023/08/23 11:56:15;;;;;;;4.85;2.35;;;;;;;;;;4890413;28;20383;-78
2023/08/23 11:58:41;;;;;;;7.97;3.55;;;;;;;;;;4893408;28;20228;-78
2023/08/23 12:01:08;;;;;;;14.48;4.70;;;;;;;;;;4855436;28;20255;-79
2023/08/23 12:03:35;;;;;;;11.50;2.88;;;;;;;;;;4929957;28;20682;-79
2023/08/23 12:06:03;;;;;;;15.75;4.95;;;;;;;;;;4896804;28;20229;-78
2023/08/23 12:08:30;;;;;;;10.05;3.08;;;;;;;;;;4866488;28;20234;-77
2023/08/23 12:10:57;;;;;;;40.17;9.23;;;;;;;;;;4902506;28;20287;-79
2023/08/23 12:13:24;;;;;;;6.43;2.92;;;;;;;;;;4940276;28;20287;-80
2023/08/23 12:15:50;;;;;;;21.73;5.28;;;;;;;;;;4886739;28;20234;-80
2023/08/23 12:18:17;;;;;;;8.32;3.30;;;;;;;;;;4949783;28;20689;-79
2023/08/23 12:20:44;;;;;;;6.90;2.55;;;;;;;;;;4960681;28;20390;-80
2023/08/23 12:23:13;;;;;;;4.20;1.88;;;;;;;;;;4942562;28;20247;-80
2023/08/23 12:25:41;;;;;;;5.82;2.45;;;;;;;;;;4933845;28;20347;-79
2023/08/23 12:28:08;;;;;;;29.23;6.68;;;;;;;;;;4938567;28;20243;-80
2023/08/23 12:30:35;;;;;;;9.93;3.42;;;;;;;;;;4926153;28;20312;-80
2023/08/23 12:33:01;;;;;;;48.85;10.25;;;;;;;;;;4924267;28;20228;-79
2023/08/23 12:35:28;;;;;;;6.97;2.92;;;;;;;;;;4956887;28;20296;-80
2023/08/23 12:37:55;;;;;;;62.20;12.98;;;;;;;;;;4930633;28;20235;-78
2023/08/23 12:40:23;;;;;;;8.57;3.55;;;;;;;;;;4930613;28;20229;-78
2023/08/23 12:42:49;;;;;;;13.85;4.85;;;;;;;;;;4928333;28;20233;-79
2023/08/23 12:45:16;;;;;;;7.35;3.33;;;;;;;;;;4960124;28;20232;-78
2023/08/23 12:47:43;;;;;;;3.35;1.60;;;;;;;;;;4964517;28;20236;-79
2023/08/23 12:50:09;;;;;;;6.60;2.97;;;;;;;;;;4946890;28;20264;-79
2023/08/23 12:52:37;;;;;;;3.50;1.88;;;;;;;;;;4954108;28;20251;-79
2023/08/23 12:55:04;;;;;;;35.83;8.27;;;;;;;;;;4943516;28;20242;-80
2023/08/23 12:57:32;;;;;;;5.32;2.20;;;;;;;;;;4932986;28;20275;-81
2023/08/23 13:00:00;;;;;;;42.95;11.15;;;;;;;;;;4940167;28;20288;-81
2023/08/23 13:02:44;;;;;;;4.85;2.20;;;;;;;;;;4956869;28;20232;-79
2023/08/23 13:05:10;;;;;;;4.22;2.10;;;;;;;;;;4949934;28;20236;-79
2023/08/23 13:07:37;;;;;;;3.35;1.52;;;;;;;;;;4961680;28;20232;-79
2023/08/23 13:10:04;;;;;;;34.90;8.90;;;;;;;;;;4955738;28;20228;-79
2023/08/23 13:12:30;;;;;;;7.85;3.38;;;;;;;;;;4932963;28;20235;-78
2023/08/23 13:14:57;;;;;;;30.73;6.75;;;;;;;;;;4944225;28;20295;-81
2023/08/23 13:17:23;;;;;;;5.15;2.40;;;;;;;;;;4952289;28;20243;-79
2023/08/23 13:19:50;;;;;;;17.95;4.20;;;;;;;;;;4954757;28;20659;-79
2023/08/23 13:22:17;;;;;;;16.60;3.25;;;;;;;;;;4960729;28;20251;-80
2023/08/23 13:24:45;;;;;;;5.78;2.33;;;;;;;;;;4963299;28;20232;-79
2023/08/23 13:27:11;;;;;;;7.00;2.35;;;;;;;;;;4910314;28;20240;-79
2023/08/23 13:29:38;;;;;;;11.52;3.10;;;;;;;;;;4958261;28;20233;-79
2023/08/23 13:32:05;;;;;;;31.35;6.50;;;;;;;;;;4951458;28;20232;-80
2023/08/23 13:34:50;;;;;;;14.70;4.20;;;;;;;;;;4950098;28;20242;-80
2023/08/23 13:37:17;;;;;;;7.32;2.25;;;;;;;;;;4969179;28;20243;-80
2023/08/23 13:39:43;;;;;;;11.10;3.15;;;;;;;;;;4955287;28;20241;-81
2023/08/23 13:42:10;;;;;;;10.68;2.58;;;;;;;;;;4943197;28;20239;-80
2023/08/23 13:44:37;;;;;;;15.02;3.92;;;;;;;;;;4961654;28;20240;-78
2023/08/23 13:47:03;;;;;;;38.30;7.40;;;;;;;;;;4941074;28;20256;-79
2023/08/23 13:49:30;;;;;;;5.70;2.38;;;;;;;;;;4940093;28;20253;-78
2023/08/23 13:51:58;;;;;;;31.27;6.95;;;;;;;;;;4951458;28;20248;-79
2023/08/23 13:54:25;;;;;;;4.75;2.03;;;;;;;;;;4961805;28;20696;-79
2023/08/23 13:56:51;;;;;;;15.88;4.55;;;;;;;;;;4957168;28;20246;-79
2023/08/23 13:59:18;;;;;;;6.40;2.28;;;;;;;;;;4961875;28;20235;-79
2023/08/23 14:01:45;;;;;;;13.20;3.78;;;;;;;;;;4959979;28;20237;-79
2023/08/23 14:04:12;;;;;;;12.77;3.05;;;;;;;;;;4955791;28;20237;-79
2023/08/23 14:06:38;;;;;;;12.80;2.97;;;;;;;;;;4954284;28;20284;-79
2023/08/23 14:09:05;;;;;;;20.92;5.03;;;;;;;;;;4959341;28;20236;-79
2023/08/23 14:11:36;;;;;;;12.65;3.08;;;;;;;;;;4955360;28;20269;-79
2023/08/23 14:14:03;;;;;;;45.08;8.40;;;;;;;;;;4956645;28;20250;-79
2023/08/23 14:16:30;;;;;;;13.80;3.75;;;;;;;;;;4957780;28;20238;-80
2023/08/23 14:18:56;;;;;;;37.60;8.23;;;;;;;;;;4955928;28;20259;-79
2023/08/23 14:21:23;;;;;;;7.97;2.60;;;;;;;;;;4959628;28;20235;-79
2023/08/23 14:23:49;;;;;;;23.13;5.30;;;;;;;;;;4959885;28;20278;-80
2023/08/23 14:26:16;;;;;;;6.78;2.15;;;;;;;;;;4958837;28;20246;-80
2023/08/23 14:28:44;;;;;;;11.73;3.05;;;;;;;;;;4948390;28;20264;-78
2023/08/23 14:31:11;;;;;;;10.38;3.10;;;;;;;;;;4951524;28;20264;-79
2023/08/23 14:33:38;;;;;;;10.82;2.95;;;;;;;;;;4967500;28;20233;-79
2023/08/23 14:36:07;;;;;;;27.98;5.65;;;;;;;;;;4962212;28;20248;-79